createdAt,value
2022-11-24T00:00:52.111Z,8.87
2022-11-24T00:03:19.688Z,8.91
2022-11-24T00:05:46.999Z,8.94
2022-11-24T00:08:13.946Z,8.90
2022-11-24T00:10:42.650Z,8.84
2022-11-24T00:13:09.646Z,8.83
2022-11-24T00:15:36.623Z,8.71
2022-11-24T00:18:03.890Z,8.71
2022-11-24T00:20:30.941Z,8.65
2022-11-24T00:22:58.082Z,8.56
2022-11-24T00:25:25.138Z,8.57
2022-11-24T00:28:00.012Z,8.54
2022-11-24T00:30:27.256Z,8.59
2022-11-24T00:32:54.323Z,8.60
2022-11-24T00:35:21.245Z,8.60
2022-11-24T00:37:48.361Z,8.60
2022-11-24T00:40:16.172Z,8.59
2022-11-24T00:42:43.103Z,8.54
2022-11-24T00:45:14.203Z,8.52
2022-11-24T00:47:41.616Z,8.49
2022-11-24T00:50:10.007Z,8.49
2022-11-24T00:52:37.318Z,8.54
2022-11-24T00:55:05.270Z,8.46
2022-11-24T00:57:35.200Z,8.49
2022-11-24T01:00:02.445Z,8.46
2022-11-24T01:02:30.872Z,8.45
2022-11-24T01:04:58.010Z,8.46
2022-11-24T01:07:25.063Z,8.49
2022-11-24T01:09:52.148Z,8.50
2022-11-24T01:12:19.239Z,8.59
2022-11-24T01:14:46.202Z,8.66
2022-11-24T01:17:13.161Z,8.70
2022-11-24T01:19:41.743Z,8.73
2022-11-24T01:22:08.937Z,8.72
2022-11-24T01:24:36.028Z,8.74
2022-11-24T01:27:03.226Z,8.80
2022-11-24T01:29:30.774Z,8.83
2022-11-24T01:31:57.682Z,8.84
2022-11-24T01:34:24.926Z,8.81
2022-11-24T01:36:53.283Z,8.82
2022-11-24T01:39:20.246Z,8.82
2022-11-24T01:41:47.445Z,8.81
2022-11-24T01:44:24.605Z,8.75
2022-11-24T01:46:58.880Z,8.71
2022-11-24T01:49:35.702Z,8.65
2022-11-24T01:52:13.996Z,8.64
2022-11-24T01:54:46.881Z,8.67
2022-11-24T01:57:22.931Z,8.75
2022-11-24T01:59:54.928Z,8.78
2022-11-24T02:02:29.396Z,8.76
2022-11-24T02:05:03.029Z,8.66
2022-11-24T02:07:33.157Z,8.49
2022-11-24T02:10:07.044Z,8.43
2022-11-24T02:12:37.585Z,8.44
2022-11-24T02:15:06.298Z,8.47
2022-11-24T02:17:33.279Z,8.43
2022-11-24T02:20:04.721Z,8.41
2022-11-24T02:22:47.854Z,8.31
2022-11-24T02:25:29.303Z,8.24
2022-11-24T02:28:02.076Z,8.18
2022-11-24T02:30:29.166Z,8.12
2022-11-24T02:32:56.433Z,8.08
2022-11-24T02:35:23.611Z,8.00
2022-11-24T02:37:50.481Z,7.97
2022-11-24T02:40:22.732Z,7.96
2022-11-24T02:42:49.696Z,7.87
2022-11-24T02:45:18.533Z,7.83
2022-11-24T02:47:45.781Z,7.78
2022-11-24T02:50:13.270Z,7.75
2022-11-24T02:52:40.253Z,7.75
2022-11-24T02:55:08.561Z,7.63
2022-11-24T02:57:35.527Z,7.58
2022-11-24T03:00:02.786Z,7.56
2022-11-24T03:02:32.077Z,7.54
2022-11-24T03:04:59.097Z,7.57
2022-11-24T03:07:26.498Z,7.55
2022-11-24T03:09:53.487Z,7.51
2022-11-24T03:12:20.499Z,7.54
2022-11-24T03:14:47.373Z,7.63
2022-11-24T03:17:14.653Z,7.71
2022-11-24T03:19:42.943Z,7.74
2022-11-24T03:22:11.593Z,7.83
2022-11-24T03:24:38.805Z,7.93
2022-11-24T03:27:06.095Z,8.00
2022-11-24T03:29:33.139Z,8.07
2022-11-24T03:32:00.052Z,8.16
2022-11-24T03:34:27.191Z,8.15
2022-11-24T03:36:55.451Z,8.13
2022-11-24T03:39:22.476Z,8.02
2022-11-24T03:41:49.558Z,8.05
2022-11-24T03:44:16.965Z,8.05
2022-11-24T03:46:43.993Z,7.99
2022-11-24T03:49:11.242Z,7.88
2022-11-24T03:51:38.189Z,7.79
2022-11-24T03:54:07.328Z,7.77
2022-11-24T03:56:34.994Z,7.81
2022-11-24T03:59:02.332Z,7.86
2022-11-24T04:01:29.331Z,7.88
2022-11-24T04:03:56.629Z,7.88
2022-11-24T04:06:23.516Z,7.96
2022-11-24T04:08:50.450Z,7.92
2022-11-24T04:11:18.786Z,7.91
2022-11-24T04:13:47.743Z,7.90
2022-11-24T04:16:14.691Z,7.96
2022-11-24T04:18:41.555Z,8.03
2022-11-24T04:21:08.404Z,8.02
2022-11-24T04:23:35.183Z,8.00
2022-11-24T04:26:02.175Z,8.04
2022-11-24T04:28:30.329Z,8.05
2022-11-24T04:31:02.321Z,8.04
2022-11-24T04:33:29.275Z,8.00
2022-11-24T04:35:56.167Z,7.95
2022-11-24T04:39:25.614Z,7.91
2022-11-24T04:41:10.451Z,7.96
2022-11-24T04:43:40.779Z,7.93
2022-11-24T04:46:11.223Z,7.99
2022-11-24T04:48:38.478Z,7.95
2022-11-24T04:51:06.159Z,7.97
2022-11-24T04:53:33.095Z,7.99
2022-11-24T04:56:03.868Z,7.95
2022-11-24T04:58:31.093Z,7.97
2022-11-24T05:00:59.272Z,7.99
2022-11-24T05:03:26.462Z,7.98
2022-11-24T05:05:53.236Z,7.97
2022-11-24T05:08:20.020Z,7.98
2022-11-24T05:10:47.061Z,7.96
2022-11-24T05:13:13.962Z,7.96
2022-11-24T05:15:42.378Z,7.96
2022-11-24T05:18:14.607Z,8.01
2022-11-24T05:20:41.861Z,8.02
2022-11-24T05:23:08.818Z,8.02
2022-11-24T05:25:36.223Z,8.04
2022-11-24T05:28:06.060Z,8.02
2022-11-24T05:30:32.969Z,8.03
2022-11-24T05:33:05.705Z,8.09
2022-11-24T05:35:35.602Z,8.15
2022-11-24T05:38:03.848Z,8.14
2022-11-24T05:40:30.972Z,8.16
2022-11-24T05:42:57.938Z,8.14
2022-11-24T05:45:24.774Z,8.21
2022-11-24T05:47:51.677Z,8.21
2022-11-24T05:50:21.863Z,8.31
2022-11-24T05:52:50.384Z,8.35
2022-11-24T05:55:17.475Z,8.34
2022-11-24T05:57:44.706Z,8.28
2022-11-24T06:00:14.094Z,8.30
2022-11-24T06:02:41.449Z,8.27
2022-11-24T06:05:09.376Z,8.21
2022-11-24T06:07:36.239Z,8.20
2022-11-24T06:10:05.551Z,8.21
2022-11-24T06:12:32.557Z,8.15
2022-11-24T06:14:59.371Z,8.07
2022-11-24T06:17:26.332Z,8.06
2022-11-24T06:19:53.505Z,8.09
2022-11-24T06:22:20.526Z,8.13
2022-11-24T06:24:47.342Z,8.11
2022-11-24T06:27:15.962Z,8.05
2022-11-24T06:29:42.972Z,7.95
2022-11-24T06:32:10.150Z,7.75
2022-11-24T06:34:37.258Z,7.64
2022-11-24T06:37:04.399Z,7.63
2022-11-24T06:39:31.251Z,7.67
2022-11-24T06:41:58.372Z,7.67
2022-11-24T06:44:26.576Z,7.68
2022-11-24T06:46:54.243Z,7.67
2022-11-24T06:49:21.086Z,7.73
2022-11-24T06:51:48.322Z,7.73
2022-11-24T06:54:19.141Z,7.64
2022-11-24T06:56:46.044Z,7.61
2022-11-24T06:59:19.014Z,7.50
2022-11-24T07:01:47.721Z,7.50
2022-11-24T07:04:15.456Z,7.50
2022-11-24T07:06:43.343Z,7.43
2022-11-24T07:09:27.418Z,7.44
2022-11-24T07:12:03.154Z,7.42
2022-11-24T07:14:58.172Z,7.50
2022-11-24T07:18:03.782Z,7.48
2022-11-24T07:20:34.475Z,7.52
2022-11-24T07:23:01.298Z,7.52
2022-11-24T07:25:28.421Z,7.51
2022-11-24T07:27:56.873Z,7.52
2022-11-24T07:30:23.787Z,7.48
2022-11-24T07:32:58.912Z,7.46
2022-11-24T07:35:25.974Z,7.46
2022-11-24T07:37:55.138Z,7.47
2022-11-24T07:40:22.503Z,7.53
2022-11-24T07:42:49.313Z,7.65
2022-11-24T07:45:16.828Z,7.65
2022-11-24T07:47:43.930Z,7.67
2022-11-24T07:50:12.735Z,7.68
2022-11-24T07:52:40.109Z,7.70
2022-11-24T07:55:08.443Z,7.77
2022-11-24T07:57:35.617Z,7.83
2022-11-24T08:00:05.012Z,7.89
2022-11-24T08:02:31.973Z,7.86
2022-11-24T08:04:58.820Z,7.83
2022-11-24T08:07:27.091Z,7.86
2022-11-24T08:09:53.930Z,7.88
2022-11-24T08:12:21.145Z,7.91
2022-11-24T08:14:49.489Z,8.01
2022-11-24T08:17:17.077Z,8.05
2022-11-24T08:19:44.378Z,8.08
2022-11-24T08:22:11.607Z,8.08
2022-11-24T08:24:39.828Z,8.07
2022-11-24T08:27:06.812Z,8.09
2022-11-24T08:29:33.589Z,8.15
2022-11-24T08:32:00.830Z,8.22
2022-11-24T08:34:27.737Z,8.31
2022-11-24T08:36:54.677Z,8.38
2022-11-24T08:43:23.876Z,8.51
2022-11-24T08:45:51.186Z,8.66
2022-11-24T08:48:19.611Z,8.76
2022-11-24T08:50:46.701Z,8.80
2022-11-24T08:53:23.663Z,8.92
2022-11-24T08:55:52.380Z,9.01
2022-11-24T08:58:19.179Z,9.02
2022-11-24T09:00:46.025Z,9.14
2022-11-24T09:03:14.348Z,9.58
2022-11-24T09:05:51.620Z,10.42
2022-11-24T09:08:19.418Z,10.05
2022-11-24T09:10:59.392Z,9.95
2022-11-24T09:13:26.675Z,10.39
2022-11-24T09:15:54.226Z,10.27
2022-11-24T09:18:25.189Z,10.14
2022-11-24T09:21:06.317Z,10.36
2022-11-24T09:23:33.543Z,9.95
2022-11-24T09:26:05.694Z,9.63
2022-11-24T09:28:35.785Z,9.66
2022-11-24T09:31:04.243Z,9.63
2022-11-24T09:33:31.703Z,9.50
2022-11-24T09:35:59.779Z,9.51
2022-11-24T09:38:27.378Z,9.44
2022-11-24T09:40:56.336Z,9.48
2022-11-24T09:43:38.986Z,9.49
2022-11-24T09:46:13.786Z,9.50
2022-11-24T09:48:46.911Z,9.47
2022-11-24T09:51:15.605Z,9.49
2022-11-24T09:53:51.628Z,9.50
2022-11-24T09:56:23.210Z,9.54
2022-11-24T09:58:57.191Z,9.60
2022-11-24T10:01:30.410Z,9.56
2022-11-24T10:04:04.278Z,9.57
2022-11-24T10:06:45.334Z,9.64
2022-11-24T10:09:39.944Z,9.71
2022-11-24T10:12:33.487Z,9.77
2022-11-24T10:15:34.492Z,9.83
2022-11-24T10:18:46.702Z,9.89
2022-11-24T10:21:47.816Z,9.73
2022-11-24T10:24:48.347Z,9.75
2022-11-24T10:27:18.532Z,9.75
2022-11-24T10:29:51.571Z,9.65
2022-11-24T10:32:26.513Z,9.52
2022-11-24T10:35:00.541Z,9.69
2022-11-24T10:37:37.000Z,9.98
2022-11-24T10:40:40.599Z,10.19
2022-11-24T10:43:03.703Z,11.02
2022-11-24T10:45:31.795Z,11.60
2022-11-24T10:48:00.035Z,12.20
2022-11-24T10:50:32.299Z,13.69
2022-11-24T10:53:14.700Z,14.57
2022-11-24T10:56:03.110Z,15.30
2022-11-24T10:58:37.418Z,15.43
2022-11-24T11:01:33.244Z,15.77
2022-11-24T11:04:01.868Z,17.58
2022-11-24T11:06:31.137Z,18.31
2022-11-24T11:09:18.940Z,15.07
2022-11-24T11:11:47.197Z,14.27
2022-11-24T11:14:30.490Z,14.01
2022-11-24T11:16:58.700Z,13.63
2022-11-24T11:19:56.977Z,13.93
2022-11-24T11:22:28.679Z,12.90
2022-11-24T11:25:20.297Z,12.56
2022-11-24T11:27:47.639Z,12.20
2022-11-24T11:36:15.733Z,12.04
2022-11-24T11:38:45.168Z,12.09
2022-11-24T11:41:21.722Z,13.39
2022-11-24T11:44:02.430Z,15.15
2022-11-24T11:46:32.758Z,15.45
2022-11-24T11:49:00.409Z,16.78
2022-11-24T11:51:48.709Z,16.44
2022-11-24T11:54:31.129Z,15.82
2022-11-24T11:57:10.214Z,14.59
2022-11-24T12:00:02.151Z,13.85
2022-11-24T12:03:24.146Z,12.84
2022-11-24T12:06:08.630Z,13.30
2022-11-24T12:09:19.443Z,14.96
2022-11-24T12:11:59.951Z,16.17
2022-11-24T12:14:43.025Z,17.04
2022-11-24T12:17:28.690Z,18.42
2022-11-24T12:20:27.427Z,18.57
2022-11-24T12:23:09.339Z,18.83
2022-11-24T12:25:46.713Z,18.10
2022-11-24T12:28:35.075Z,17.23
2022-11-24T12:31:06.625Z,16.83
2022-11-24T12:34:05.312Z,17.03
2022-11-24T12:37:02.715Z,16.87
2022-11-24T12:39:39.326Z,16.05
2022-11-24T12:42:25.438Z,14.41
2022-11-24T12:45:16.854Z,13.76
2022-11-24T12:48:12.078Z,13.22
2022-11-24T12:50:43.701Z,12.90
2022-11-24T12:53:17.527Z,12.88
2022-11-24T12:55:45.683Z,12.72
2022-11-24T12:58:23.450Z,12.35
2022-11-24T13:01:14.636Z,12.18
2022-11-24T13:04:00.838Z,12.04
2022-11-24T13:06:38.519Z,11.90
2022-11-24T13:09:09.640Z,11.96
2022-11-24T13:11:41.913Z,11.99
2022-11-24T13:14:18.354Z,12.02
2022-11-24T13:17:29.559Z,12.06
2022-11-24T13:19:46.238Z,11.81
2022-11-24T13:22:23.019Z,11.89
2022-11-24T13:25:16.328Z,11.93
2022-11-24T13:27:46.762Z,12.08
2022-11-24T13:30:59.137Z,12.24
2022-11-24T13:33:36.494Z,12.40
2022-11-24T13:36:33.027Z,12.44
2022-11-24T13:39:02.161Z,12.49
2022-11-24T13:42:08.968Z,12.38
2022-11-24T13:44:54.223Z,12.42
2022-11-24T13:47:41.359Z,12.51
2022-11-24T13:50:21.822Z,12.92
2022-11-24T13:52:55.650Z,13.43
2022-11-24T13:55:29.684Z,13.62
2022-11-24T13:58:22.368Z,13.53
2022-11-24T14:01:15.215Z,13.66
2022-11-24T14:04:43.236Z,13.68
2022-11-24T14:07:15.387Z,13.82
2022-11-24T14:09:46.983Z,14.43
2022-11-24T14:12:17.240Z,14.52
2022-11-24T14:14:47.093Z,14.79
2022-11-24T14:17:19.156Z,14.79
2022-11-24T14:19:49.104Z,14.37
2022-11-24T14:22:21.671Z,13.86
2022-11-24T14:24:55.551Z,13.52
2022-11-24T14:27:30.208Z,13.24
2022-11-24T14:30:00.140Z,12.97
2022-11-24T14:32:27.317Z,12.70
2022-11-24T14:34:54.297Z,12.56
2022-11-24T14:37:22.926Z,12.47
2022-11-24T14:39:49.784Z,12.33
2022-11-24T14:42:20.603Z,12.27
2022-11-24T14:44:53.323Z,12.14
2022-11-24T14:47:31.297Z,12.04
2022-11-24T14:50:11.614Z,11.96
2022-11-24T14:52:48.357Z,11.86
2022-11-24T14:55:28.044Z,11.82
2022-11-24T14:57:56.606Z,11.70
2022-11-24T15:00:29.129Z,11.66
2022-11-24T15:03:15.382Z,11.46
2022-11-24T15:06:00.687Z,11.40
2022-11-24T15:08:42.410Z,11.38
2022-11-24T15:11:09.375Z,11.32
2022-11-24T15:13:38.777Z,11.28
2022-11-24T15:16:16.138Z,11.26
2022-11-24T15:18:46.843Z,11.22
2022-11-24T15:21:19.346Z,11.15
2022-11-24T15:24:14.816Z,11.12
2022-11-24T15:26:42.439Z,11.08
2022-11-24T15:29:10.288Z,11.03
2022-11-24T15:31:37.373Z,10.93
2022-11-24T15:34:04.536Z,10.88
2022-11-24T15:36:31.558Z,10.83
2022-11-24T15:38:58.912Z,10.74
2022-11-24T15:41:30.902Z,10.54
2022-11-24T15:43:58.382Z,10.24
2022-11-24T15:46:26.311Z,10.11
2022-11-24T15:48:54.424Z,10.05
2022-11-24T15:51:25.038Z,10.08
2022-11-24T15:54:00.061Z,9.99
2022-11-24T15:56:33.556Z,9.90
2022-11-24T15:59:00.925Z,9.82
2022-11-24T16:01:32.463Z,9.81
2022-11-24T16:03:59.660Z,9.82
2022-11-24T16:06:26.969Z,9.76
2022-11-24T16:08:54.873Z,9.64
2022-11-24T16:11:22.156Z,9.55
2022-11-24T16:13:53.417Z,9.40
2022-11-24T16:16:23.802Z,9.31
2022-11-24T16:18:50.789Z,9.26
2022-11-24T16:21:17.658Z,9.17
2022-11-24T16:23:44.714Z,9.11
2022-11-24T16:26:11.585Z,9.04
2022-11-24T16:28:38.392Z,8.80
2022-11-24T16:31:06.671Z,8.70
2022-11-24T16:33:33.659Z,8.57
2022-11-24T16:36:00.762Z,8.41
2022-11-24T16:38:27.584Z,8.35
2022-11-24T16:40:55.674Z,8.38
2022-11-24T16:43:22.940Z,8.35
2022-11-24T16:46:10.965Z,8.30
2022-11-24T16:48:39.283Z,8.18
2022-11-24T16:51:07.551Z,8.14
2022-11-24T16:53:34.634Z,8.15
2022-11-24T16:56:01.855Z,7.95
2022-11-24T16:58:29.146Z,7.91
2022-11-24T17:01:03.233Z,7.97
2022-11-24T17:03:31.445Z,8.03
2022-11-24T17:06:00.734Z,8.05
2022-11-24T17:08:31.247Z,8.09
2022-11-24T17:10:58.803Z,8.10
2022-11-24T17:13:25.726Z,8.07
2022-11-24T17:15:54.518Z,8.06
2022-11-24T17:18:25.653Z,8.05
2022-11-24T17:20:52.666Z,8.06
2022-11-24T17:23:20.832Z,8.00
2022-11-24T17:25:47.846Z,7.76
2022-11-24T17:28:14.665Z,7.70
2022-11-24T17:30:41.568Z,7.77
2022-11-24T17:33:08.929Z,7.79
2022-11-24T17:35:36.423Z,7.80
2022-11-24T17:38:04.118Z,7.79
2022-11-24T17:40:32.442Z,7.79
2022-11-24T17:43:00.165Z,7.75
2022-11-24T17:45:29.333Z,7.71
2022-11-24T17:47:58.191Z,7.66
2022-11-24T17:50:26.373Z,7.60
2022-11-24T17:52:54.186Z,7.64
2022-11-24T17:55:21.363Z,7.66
2022-11-24T17:57:49.583Z,7.69
2022-11-24T18:00:17.758Z,7.66
2022-11-24T18:02:44.829Z,7.62
2022-11-24T18:05:11.727Z,7.57
2022-11-24T18:07:38.611Z,7.52
2022-11-24T18:10:07.268Z,7.50
2022-11-24T18:12:34.570Z,7.47
2022-11-24T18:15:02.850Z,7.43
2022-11-24T18:17:29.697Z,7.40
2022-11-24T18:19:56.863Z,7.32
2022-11-24T18:22:50.179Z,7.24
2022-11-24T18:25:10.625Z,6.93
2022-11-24T18:27:37.596Z,6.96
2022-11-24T18:30:07.866Z,7.06
2022-11-24T18:32:34.649Z,7.10
2022-11-24T18:35:01.926Z,7.09
2022-11-24T18:37:29.620Z,7.07
2022-11-24T18:39:56.471Z,7.07
2022-11-24T18:42:23.314Z,7.07
2022-11-24T18:44:53.918Z,7.08
2022-11-24T18:47:22.868Z,7.08
2022-11-24T18:49:49.708Z,7.08
2022-11-24T18:52:16.820Z,7.06
2022-11-24T18:54:43.603Z,7.03
2022-11-24T18:57:10.772Z,6.97
2022-11-24T18:59:37.637Z,7.00
2022-11-24T19:02:04.512Z,6.98
2022-11-24T19:04:33.672Z,6.90
2022-11-24T19:07:00.767Z,6.82
2022-11-24T19:09:27.551Z,6.85
2022-11-24T19:11:54.711Z,6.83
2022-11-24T19:14:21.659Z,6.83
2022-11-24T19:16:49.079Z,6.82
2022-11-24T19:19:16.024Z,6.85
2022-11-24T19:21:44.412Z,6.80
2022-11-24T19:24:12.476Z,6.79
2022-11-24T19:26:39.928Z,6.79
2022-11-24T19:29:08.448Z,6.70
2022-11-24T19:31:36.658Z,6.71
2022-11-24T19:34:04.212Z,6.62
2022-11-24T19:36:31.570Z,6.70
2022-11-24T19:39:00.022Z,6.76
2022-11-24T19:41:30.489Z,6.68
2022-11-24T19:43:58.244Z,6.58
2022-11-24T19:46:27.773Z,6.56
2022-11-24T19:48:56.379Z,6.49
2022-11-24T19:51:26.437Z,6.47
2022-11-24T19:53:54.333Z,6.54
2022-11-24T19:56:25.585Z,6.55
2022-11-24T19:58:54.553Z,6.51
2022-11-24T20:01:23.964Z,6.59
2022-11-24T20:03:56.648Z,6.69
2022-11-24T20:06:23.595Z,6.76
2022-11-24T20:08:50.465Z,6.78
2022-11-24T20:11:20.748Z,6.82
2022-11-24T20:13:49.344Z,6.81
2022-11-24T20:16:18.064Z,6.73
2022-11-24T20:18:47.606Z,6.79
2022-11-24T20:21:17.667Z,6.74
2022-11-24T20:23:50.879Z,6.77
2022-11-24T20:26:21.241Z,6.83
2022-11-24T20:28:50.710Z,6.78
2022-11-24T20:31:21.258Z,6.79
2022-11-24T20:33:48.476Z,6.82
2022-11-24T20:36:18.575Z,6.75
2022-11-24T20:38:47.820Z,6.73
2022-11-24T20:41:17.905Z,6.79
2022-11-24T20:43:45.849Z,6.93
2022-11-24T20:46:17.566Z,6.83
2022-11-24T20:48:45.411Z,6.84
2022-11-24T20:51:14.943Z,6.75
2022-11-24T20:53:42.733Z,6.69
2022-11-24T20:56:13.236Z,6.76
2022-11-24T20:58:41.409Z,6.81
2022-11-24T21:01:12.045Z,6.73
2022-11-24T21:03:43.470Z,6.53
2022-11-24T21:06:11.518Z,6.46
2022-11-24T21:08:41.708Z,6.47
2022-11-24T21:11:12.125Z,6.59
2022-11-24T21:13:41.839Z,6.59
2022-11-24T21:16:15.763Z,6.51
2022-11-24T21:18:45.870Z,6.50
2022-11-24T21:21:14.286Z,6.47
2022-11-24T21:23:41.466Z,6.42
2022-11-24T21:26:13.312Z,6.35
2022-11-24T21:28:43.618Z,6.31
2022-11-24T21:31:14.152Z,6.34
2022-11-24T21:33:42.389Z,6.37
2022-11-24T21:36:11.320Z,6.27
2022-11-24T21:38:38.778Z,6.24
2022-11-24T21:41:08.035Z,6.17
2022-11-24T21:43:35.649Z,6.13
2022-11-24T21:46:05.427Z,6.22
2022-11-24T21:48:34.507Z,6.27
2022-11-24T21:51:04.506Z,6.32
2022-11-24T21:53:35.926Z,6.30
2022-11-24T21:56:06.960Z,6.18
2022-11-24T21:58:34.069Z,6.13
2022-11-24T22:01:02.494Z,6.16
2022-11-24T22:03:29.764Z,6.17
2022-11-24T22:05:58.839Z,6.16
2022-11-24T22:08:28.684Z,6.12
2022-11-24T22:11:03.407Z,6.11
2022-11-24T22:13:30.809Z,6.08
2022-11-24T22:16:04.883Z,6.03
2022-11-24T22:18:34.897Z,6.00
2022-11-24T22:21:02.542Z,5.99
2022-11-24T22:23:29.989Z,5.97
2022-11-24T22:26:03.625Z,5.96
2022-11-24T22:28:32.205Z,5.94
2022-11-24T22:31:03.764Z,5.89
2022-11-24T22:33:30.776Z,5.83
2022-11-24T22:35:58.445Z,5.82
2022-11-24T22:38:27.246Z,5.81
2022-11-24T22:40:54.269Z,5.70
2022-11-24T22:43:23.216Z,5.68
2022-11-24T22:45:50.165Z,5.57
2022-11-24T22:48:17.382Z,5.60
2022-11-24T22:50:44.299Z,5.61
2022-11-24T22:53:11.475Z,5.58
2022-11-24T22:55:38.275Z,5.59
2022-11-24T22:58:05.084Z,5.48
2022-11-24T23:00:33.265Z,5.45
2022-11-24T23:03:00.339Z,5.48
2022-11-24T23:05:27.161Z,5.48
2022-11-24T23:07:54.106Z,5.49
2022-11-24T23:10:21.181Z,5.42
2022-11-24T23:12:47.990Z,5.18
2022-11-24T23:15:15.217Z,5.24
2022-11-24T23:17:43.401Z,5.26
2022-11-24T23:20:13.413Z,5.28
2022-11-24T23:22:40.304Z,5.27
2022-11-24T23:25:08.283Z,5.26
2022-11-24T23:27:35.125Z,5.21
2022-11-24T23:30:02.061Z,5.22
2022-11-24T23:32:29.036Z,5.17
2022-11-24T23:34:57.294Z,5.18
2022-11-24T23:37:39.261Z,5.16
2022-11-24T23:40:12.250Z,5.17
2022-11-24T23:42:39.077Z,5.10
2022-11-24T23:45:07.716Z,5.07
2022-11-24T23:47:34.553Z,5.06
2022-11-24T23:50:03.557Z,5.03
2022-11-24T23:52:30.561Z,5.05
2022-11-24T23:54:57.353Z,5.06
2022-11-24T23:57:24.166Z,5.06
2022-11-24T23:59:50.993Z,5.09
